Terminal Aerodrome Forecast
Issued by NWS Lake Charles, LA

Home | Current Version | Previous Version | Text Only | Print | Product List | Glossary On
Versions: 1 2 3 4 5 6 7 8 9 10 11 12 13 14 15 16 17 18 19 20 21 22 23 24 25 26 27 28 29 30 31 32
000
FTUS44 KLCH 221400 AAB
TAFLFT
TAF AMD
KLFT 221413Z 2214/2312 13004KT 1/4SM FG VV002
      TEMPO 2216/2218 1SM BR SCT008 OVC014
     FM221800 21010G18KT P6SM SCT012 OVC019
     FM222300 22008KT 6SM BR OVC012
     FM230300 23007KT 3SM BR SCT002 OVC004
     FM231000 05003KT 3/4SM BR VV002=

USA.gov is the U.S. government's official web portal to all federal, state and local government web resources and services.